createdAt,value
2023-05-19T00:01:02.138Z,98101.53
2023-05-19T00:03:31.699Z,98099.59
2023-05-19T00:06:03.638Z,98106.22
2023-05-19T00:08:32.800Z,98104.28
2023-05-19T00:11:02.942Z,98112.53
2023-05-19T00:13:31.976Z,98106.22
2023-05-19T00:16:00.901Z,98099.88
2023-05-19T00:18:29.849Z,98105.41
2023-05-19T00:20:58.402Z,98101.53
2023-05-19T00:23:28.213Z,98104.56
2023-05-19T00:25:56.796Z,98099.88
2023-05-19T00:28:25.405Z,98101.81
2023-05-19T00:30:54.130Z,98105.41
2023-05-19T00:33:22.667Z,98096.63
2023-05-19T00:35:51.215Z,98092.75
2023-05-19T00:38:19.680Z,98090.00
2023-05-19T00:40:49.991Z,98088.34
2023-05-19T00:43:18.549Z,98088.34
2023-05-19T00:45:47.011Z,98102.13
2023-05-19T00:48:15.462Z,98096.63
2023-05-19T00:50:44.287Z,98092.75
2023-05-19T00:53:13.607Z,98085.59
2023-05-19T00:55:42.228Z,98086.41
2023-05-19T00:58:13.689Z,98074.59
2023-05-19T01:00:42.740Z,98073.75
2023-05-19T01:03:12.979Z,98071.81
2023-05-19T01:05:44.774Z,98075.69
2023-05-19T01:08:13.427Z,98072.94
2023-05-19T01:10:42.564Z,98076.81
2023-05-19T01:13:12.803Z,98072.94
2023-05-19T01:15:55.704Z,98070.19
2023-05-19T01:18:31.737Z,98071.31
2023-05-19T01:21:16.978Z,98074.59
2023-05-19T01:23:54.225Z,98068.25
2023-05-19T01:26:55.974Z,98072.94
2023-05-19T01:29:43.802Z,98071.00
2023-05-19T01:32:20.576Z,98074.59
2023-05-19T01:34:50.698Z,98080.09
2023-05-19T01:37:20.520Z,98072.66
2023-05-19T01:39:49.515Z,98075.69
2023-05-19T01:42:18.974Z,98076.53
2023-05-19T01:44:47.959Z,98083.97
2023-05-19T01:47:17.884Z,98086.72
2023-05-19T01:49:46.346Z,98083.97
2023-05-19T01:52:14.827Z,98089.47
2023-05-19T01:54:43.342Z,98091.09
2023-05-19T01:57:22.546Z,98088.66
2023-05-19T01:59:58.653Z,98083.97
2023-05-19T02:02:39.543Z,98083.16
2023-05-19T02:05:14.482Z,98084.78
2023-05-19T02:07:46.675Z,98083.97
2023-05-19T02:10:23.782Z,98077.63
2023-05-19T02:12:55.267Z,98082.03
2023-05-19T02:15:30.152Z,98069.38
2023-05-19T02:18:04.568Z,98069.06
2023-05-19T02:20:33.488Z,98061.94
2023-05-19T02:23:02.246Z,98068.56
2023-05-19T02:25:30.883Z,98065.81
2023-05-19T02:28:00.057Z,98064.16
2023-05-19T02:30:32.816Z,98057.53
2023-05-19T02:33:06.298Z,98060.28
2023-05-19T02:35:34.892Z,98055.91
2023-05-19T02:38:03.353Z,98050.41
2023-05-19T02:40:31.967Z,98044.88
2023-05-19T02:43:00.525Z,98044.59
2023-05-19T02:45:29.986Z,98039.38
2023-05-19T02:48:00.453Z,98047.63
2023-05-19T02:50:30.534Z,98044.88
2023-05-19T02:52:59.162Z,98044.88
2023-05-19T02:55:27.614Z,98046.81
2023-05-19T02:57:56.126Z,98051.22
2023-05-19T03:00:24.680Z,98039.69
2023-05-19T03:02:54.184Z,98033.88
2023-05-19T03:05:22.710Z,98050.41
2023-05-19T03:07:52.509Z,98047.63
2023-05-19T03:10:20.970Z,98047.63
2023-05-19T03:12:49.414Z,98050.41
2023-05-19T03:15:18.743Z,98050.69
2023-05-19T03:17:47.284Z,98046.00
2023-05-19T03:20:16.800Z,98046.00
2023-05-19T03:22:45.601Z,98046.00
2023-05-19T03:25:15.426Z,98049.88
2023-05-19T03:27:44.010Z,98049.88
2023-05-19T03:30:13.755Z,98048.75
2023-05-19T03:32:55.769Z,98047.94
2023-05-19T03:35:24.267Z,98049.88
2023-05-19T03:37:52.893Z,98050.69
2023-05-19T03:40:23.884Z,98048.75
2023-05-19T03:42:55.294Z,98048.25
2023-05-19T03:45:23.772Z,98052.63
2023-05-19T03:47:53.805Z,98051.50
2023-05-19T03:50:42.590Z,98048.25
2023-05-19T03:53:17.477Z,98051.50
2023-05-19T03:55:48.513Z,98044.38
2023-05-19T03:58:17.504Z,98044.38
2023-05-19T04:00:45.992Z,98038.06
2023-05-19T04:03:14.523Z,98047.13
2023-05-19T04:05:43.145Z,98041.63
2023-05-19T04:08:11.672Z,98038.06
2023-05-19T04:10:40.114Z,98038.88
2023-05-19T04:13:11.358Z,98037.22
2023-05-19T04:15:40.988Z,98034.47
2023-05-19T04:18:10.826Z,98037.22
2023-05-19T04:20:42.207Z,98049.06
2023-05-19T04:23:10.894Z,98059.25
2023-05-19T04:25:40.799Z,98058.16
2023-05-19T04:28:10.755Z,98060.91
2023-05-19T04:30:39.352Z,98062.84
2023-05-19T04:33:07.998Z,98059.25
2023-05-19T04:35:38.127Z,98058.16
2023-05-19T04:38:07.584Z,98061.72
2023-05-19T04:40:37.183Z,98068.03
2023-05-19T04:43:07.327Z,98066.41
2023-05-19T04:45:37.566Z,98065.28
2023-05-19T04:48:07.850Z,98059.78
2023-05-19T04:50:38.581Z,98062.53
2023-05-19T04:53:07.264Z,98063.34
2023-05-19T04:55:35.905Z,98061.41
2023-05-19T04:58:04.581Z,98066.91
2023-05-19T05:00:35.745Z,98065.28
2023-05-19T05:03:08.935Z,98065.28
2023-05-19T05:05:37.891Z,98063.66
2023-05-19T05:08:07.220Z,98064.78
2023-05-19T05:10:40.126Z,98061.50
2023-05-19T05:13:10.597Z,98059.88
2023-05-19T05:15:40.924Z,98068.13
2023-05-19T05:18:11.941Z,98058.22
2023-05-19T05:20:41.242Z,98060.16
2023-05-19T05:23:10.558Z,98063.75
2023-05-19T05:25:39.928Z,98063.44
2023-05-19T05:28:08.655Z,98057.63
2023-05-19T05:30:38.849Z,98057.03
2023-05-19T05:33:09.329Z,98055.31
2023-05-19T05:35:41.510Z,98059.09
2023-05-19T05:38:12.378Z,98060.13
2023-05-19T05:40:41.759Z,98058.69
2023-05-19T05:43:10.902Z,98058.94
2023-05-19T05:45:46.123Z,98058.31
2023-05-19T05:48:15.406Z,98054.44
2023-05-19T05:50:46.700Z,98071.78
2023-05-19T05:53:20.842Z,98061.09
2023-05-19T05:55:53.549Z,98064.66
2023-05-19T05:58:24.331Z,98063.84
2023-05-19T06:00:55.224Z,98068.53
2023-05-19T06:03:26.113Z,98067.72
2023-05-19T06:05:56.860Z,98075.97
2023-05-19T06:08:25.385Z,98061.38
2023-05-19T06:10:53.860Z,98064.13
2023-05-19T06:13:24.153Z,98057.19
2023-05-19T06:15:53.479Z,98060.97
2023-05-19T06:18:26.807Z,98058.75
2023-05-19T06:20:56.703Z,98064.25
2023-05-19T06:23:26.688Z,98060.06
2023-05-19T06:25:55.166Z,98059.78
2023-05-19T06:28:23.723Z,98063.03
2023-05-19T06:30:53.617Z,98059.16
2023-05-19T06:33:29.387Z,98059.97
2023-05-19T06:36:00.963Z,98063.03
2023-05-19T06:38:30.005Z,98065.78
2023-05-19T06:40:58.570Z,98066.91
2023-05-19T06:43:27.130Z,98065.28
2023-05-19T06:45:57.612Z,98060.88
2023-05-19T06:48:27.569Z,98069.66
2023-05-19T06:50:56.401Z,98058.13
2023-05-19T06:53:27.218Z,98055.38
2023-05-19T06:55:59.714Z,98058.13
2023-05-19T06:58:30.401Z,98055.38
2023-05-19T07:01:00.527Z,98058.13
2023-05-19T07:03:34.462Z,98064.47
2023-05-19T07:06:04.057Z,98058.94
2023-05-19T07:08:37.095Z,98058.13
2023-05-19T07:11:08.166Z,98051.19
2023-05-19T07:13:36.771Z,98059.47
2023-05-19T07:16:06.514Z,98059.38
2023-05-19T07:18:35.412Z,98060.19
2023-05-19T07:21:03.927Z,98052.44
2023-05-19T07:23:32.978Z,98047.72
2023-05-19T07:26:02.808Z,98043.03
2023-05-19T07:28:31.249Z,98052.63
2023-05-19T07:30:59.652Z,98047.94
2023-05-19T07:33:28.154Z,98041.31
2023-05-19T07:35:56.684Z,98044.56
2023-05-19T07:38:25.219Z,98039.88
2023-05-19T07:40:53.691Z,98042.31
2023-05-19T07:43:23.470Z,98042.31
2023-05-19T07:45:53.488Z,98042.31
2023-05-19T07:48:22.510Z,98047.53
2023-05-19T07:50:52.145Z,98046.41
2023-05-19T07:53:20.815Z,98044.47
2023-05-19T07:55:49.785Z,98039.78
2023-05-19T07:58:18.993Z,98035.91
2023-05-19T08:00:48.879Z,98039.47
2023-05-19T08:03:18.374Z,98043.84
2023-05-19T08:05:47.001Z,98044.69
2023-05-19T08:08:16.848Z,98046.63
2023-05-19T08:10:45.676Z,98048.88
2023-05-19T08:13:14.221Z,98039.25
2023-05-19T08:15:42.815Z,98034.06
2023-05-19T08:18:12.770Z,98047.31
2023-05-19T08:20:41.748Z,98033.03
2023-05-19T08:23:10.220Z,98030.59
2023-05-19T08:25:38.717Z,98015.47
2023-05-19T08:28:07.261Z,98014.66
2023-05-19T08:30:35.701Z,98024.88
2023-05-19T08:33:04.232Z,98029.56
2023-05-19T08:35:34.087Z,98027.13
2023-05-19T08:38:02.594Z,98027.13
2023-05-19T08:40:31.923Z,98020.47
2023-05-19T08:43:00.587Z,98019.34
2023-05-19T08:45:29.987Z,98025.69
2023-05-19T08:47:59.080Z,98030.38
2023-05-19T08:50:32.151Z,98025.38
2023-05-19T08:53:05.788Z,98018.75
2023-05-19T08:55:37.772Z,98016.00
2023-05-19T08:58:06.596Z,98016.81
2023-05-19T09:00:35.491Z,98015.47
2023-05-19T09:03:17.638Z,98020.38
2023-05-19T09:05:52.157Z,98021.19
2023-05-19T09:08:22.594Z,98013.22
2023-05-19T09:10:51.213Z,98020.38
2023-05-19T09:13:19.715Z,98009.34
2023-05-19T09:15:49.366Z,98012.09
2023-05-19T09:18:18.169Z,98008.22
2023-05-19T09:20:47.300Z,98010.97
2023-05-19T09:23:16.953Z,98008.22
2023-05-19T09:25:50.436Z,98004.03
2023-05-19T09:28:25.036Z,98017.00
2023-05-19T09:31:00.418Z,98008.75
2023-05-19T09:33:29.598Z,97999.66
2023-05-19T09:35:58.439Z,98004.03
2023-05-19T09:38:27.406Z,98003.22
2023-05-19T09:41:01.502Z,98005.97
2023-05-19T09:43:30.125Z,97999.34
2023-05-19T09:46:01.252Z,98004.84
2023-05-19T09:48:30.422Z,97995.47
2023-05-19T09:50:59.216Z,98005.38
2023-05-19T09:53:28.077Z,98010.56
2023-05-19T09:55:58.943Z,98009.44
2023-05-19T09:58:27.912Z,98007.50
2023-05-19T10:00:57.011Z,98003.63
2023-05-19T10:03:26.735Z,97994.25
2023-05-19T10:05:56.486Z,97995.88
2023-05-19T10:08:27.253Z,97991.16
2023-05-19T10:10:56.854Z,97992.00
2023-05-19T10:13:26.952Z,97995.53
2023-05-19T10:15:59.229Z,97992.00
2023-05-19T10:18:29.396Z,97989.72
2023-05-19T10:20:58.821Z,97997.66
2023-05-19T10:23:27.629Z,97995.72
2023-05-19T10:25:59.006Z,97998.50
2023-05-19T10:28:36.071Z,97999.31
2023-05-19T10:31:09.659Z,98000.13
2023-05-19T10:33:58.632Z,98006.16
2023-05-19T10:36:40.305Z,98001.75
2023-05-19T10:39:16.551Z,98001.44
2023-05-19T10:41:52.169Z,98003.38
2023-05-19T10:44:35.472Z,98006.97
2023-05-19T10:47:07.648Z,98003.38
2023-05-19T10:49:37.359Z,98000.63
2023-05-19T10:52:21.437Z,97997.88
2023-05-19T10:54:50.075Z,98000.63
2023-05-19T10:57:19.233Z,98002.25
2023-05-19T10:59:49.943Z,98002.78
2023-05-19T11:02:39.659Z,98005.22
2023-05-19T11:05:09.281Z,98001.34
2023-05-19T11:07:37.984Z,97998.28
2023-05-19T11:10:08.039Z,97997.16
2023-05-19T11:12:44.338Z,97987.75
2023-05-19T11:15:16.553Z,97996.84
2023-05-19T11:17:49.288Z,97986.63
2023-05-19T11:20:25.600Z,97984.19
2023-05-19T11:23:08.123Z,97992.75
2023-05-19T11:25:47.861Z,98002.78
2023-05-19T11:28:20.367Z,98006.25
2023-05-19T11:30:51.790Z,98003.63
2023-05-19T11:33:21.492Z,97995.78
2023-05-19T11:35:52.148Z,97995.56
2023-05-19T11:38:21.152Z,98000.56
2023-05-19T11:40:53.460Z,98001.19
2023-05-19T11:43:23.896Z,98002.63
2023-05-19T11:45:54.717Z,97997.72
2023-05-19T11:48:23.679Z,97998.53
2023-05-19T11:50:52.453Z,97999.16
2023-05-19T11:53:21.202Z,98000.25
2023-05-19T11:55:50.282Z,97999.75
2023-05-19T11:58:19.048Z,97998.13
2023-05-19T12:00:48.036Z,97996.06
2023-05-19T12:03:22.933Z,98000.47
2023-05-19T12:05:51.793Z,97996.06
2023-05-19T12:08:21.569Z,97991.69
2023-05-19T12:10:51.464Z,97994.44
2023-05-19T12:13:20.962Z,97993.63
2023-05-19T12:15:51.812Z,97981.78
2023-05-19T12:18:21.800Z,97977.91
2023-05-19T12:20:50.649Z,97992.81
2023-05-19T12:23:19.385Z,97985.66
2023-05-19T12:25:48.490Z,97986.75
2023-05-19T12:28:17.086Z,97989.50
2023-05-19T12:30:48.883Z,97984.31
2023-05-19T12:33:17.900Z,97988.19
2023-05-19T12:35:49.939Z,97986.84
2023-05-19T12:38:20.818Z,97982.97
2023-05-19T12:40:51.040Z,97981.34
2023-05-19T12:43:22.995Z,97976.44
2023-05-19T12:45:52.270Z,97988.06
2023-05-19T12:48:23.675Z,97985.31
2023-05-19T12:50:55.492Z,97980.63
2023-05-19T12:53:23.972Z,97977.16
2023-05-19T12:55:53.656Z,97978.03
2023-05-19T12:58:23.142Z,97975.81
2023-05-19T13:00:52.763Z,97986.22
2023-05-19T13:03:22.156Z,97974.59
2023-05-19T13:05:51.825Z,97982.25
2023-05-19T13:08:23.923Z,97976.44
2023-05-19T13:10:52.627Z,97982.44
2023-05-19T13:13:21.969Z,97975.00
2023-05-19T13:15:51.024Z,97964.81
2023-05-19T13:18:19.729Z,97967.25
2023-05-19T13:20:50.228Z,97967.25
2023-05-19T13:23:19.284Z,97966.13
2023-05-19T13:25:50.638Z,97968.88
2023-05-19T13:28:19.192Z,97961.75
2023-05-19T13:30:49.521Z,97967.25
2023-05-19T13:33:18.111Z,97960.94
2023-05-19T13:35:46.631Z,97963.38
2023-05-19T13:38:15.064Z,97960.94
2023-05-19T13:40:43.462Z,97966.13
2023-05-19T13:43:13.248Z,97965.31
2023-05-19T13:45:42.668Z,97968.88
2023-05-19T13:48:11.841Z,97966.44
2023-05-19T13:50:40.375Z,97962.56
2023-05-19T13:53:09.383Z,97962.88
2023-05-19T13:55:38.300Z,97956.25
2023-05-19T13:58:06.952Z,97956.25
2023-05-19T14:00:37.084Z,97947.16
2023-05-19T14:03:05.833Z,97949.59
2023-05-19T14:05:34.461Z,97945.22
2023-05-19T14:08:03.674Z,97949.91
2023-05-19T14:10:32.244Z,97937.78
2023-05-19T14:15:34.561Z,97933.38
2023-05-19T14:18:05.048Z,97939.72
2023-05-19T14:20:34.923Z,97939.72
2023-05-19T14:23:03.588Z,97939.72
2023-05-19T14:25:32.126Z,97938.09
2023-05-19T14:28:00.884Z,97934.19
2023-05-19T14:30:29.448Z,97935.84
2023-05-19T14:32:58.002Z,97930.03
2023-05-19T14:35:28.453Z,97932.97
2023-05-19T14:37:56.933Z,97930.75
2023-05-19T14:40:25.517Z,97927.69
2023-05-19T14:42:53.995Z,97927.88
2023-05-19T14:45:22.441Z,97920.13
2023-05-19T14:47:51.029Z,97923.38
2023-05-19T14:50:19.785Z,97925.06
2023-05-19T14:52:49.665Z,97929.13
2023-05-19T14:55:18.253Z,97928.31
2023-05-19T14:57:46.767Z,97937.09
2023-05-19T15:00:15.658Z,97937.09
2023-05-19T15:02:44.037Z,97932.41
2023-05-19T15:05:12.629Z,97934.84
2023-05-19T15:07:41.055Z,97930.97
2023-05-19T15:10:11.414Z,97926.59
2023-05-19T15:12:39.818Z,97923.22
2023-05-19T15:15:09.410Z,97930.34
2023-05-19T15:17:37.906Z,97920.97
2023-05-19T15:20:07.668Z,97921.78
2023-05-19T15:22:36.347Z,97920.97
2023-05-19T15:25:05.846Z,97908.81
2023-05-19T15:27:37.204Z,97910.75
2023-05-19T15:30:06.848Z,97912.38
2023-05-19T15:32:35.406Z,97906.88
2023-05-19T15:35:03.913Z,97907.38
2023-05-19T15:37:32.367Z,97907.69
2023-05-19T15:40:00.844Z,97903.00
2023-05-19T15:42:29.288Z,97897.81
2023-05-19T15:44:59.088Z,97891.78
2023-05-19T15:47:27.589Z,97888.50
2023-05-19T15:49:56.032Z,97898.72
2023-05-19T15:52:24.491Z,97890.75
2023-05-19T15:54:55.079Z,97872.59
2023-05-19T15:57:23.600Z,97884.75
2023-05-19T15:59:52.112Z,97881.19
2023-05-19T16:02:22.401Z,97870.47
2023-05-19T16:04:50.888Z,97871.59
2023-05-19T16:07:19.404Z,97867.19
2023-05-19T16:09:47.851Z,97867.19
2023-05-19T16:12:16.328Z,97861.16
2023-05-19T16:14:44.758Z,97862.78
2023-05-19T16:17:13.848Z,97857.28
2023-05-19T16:19:43.674Z,97855.66
2023-05-19T16:22:12.218Z,97856.75
2023-05-19T16:24:40.667Z,97856.75
2023-05-19T16:27:09.138Z,97854.81
2023-05-19T16:29:37.585Z,97856.75
2023-05-19T16:32:06.614Z,97846.88
2023-05-19T16:34:35.116Z,97843.00
2023-05-19T16:37:05.374Z,97846.88
2023-05-19T16:39:33.931Z,97844.13
2023-05-19T16:42:02.455Z,97845.25
2023-05-19T16:44:30.926Z,97844.13
2023-05-19T16:46:59.366Z,97832.59
2023-05-19T16:49:27.801Z,97835.03
2023-05-19T16:51:56.649Z,97833.41
2023-05-19T16:54:26.467Z,97831.78
2023-05-19T16:56:54.891Z,97827.38
2023-05-19T16:59:23.352Z,97821.06
2023-05-19T17:01:51.949Z,97821.38
2023-05-19T17:04:20.417Z,97823.31
2023-05-19T17:06:48.918Z,97824.44
2023-05-19T17:09:17.523Z,97818.94
2023-05-19T17:11:47.325Z,97818.94
2023-05-19T17:14:16.307Z,97820.06
2023-05-19T17:16:44.783Z,97819.25
2023-05-19T17:19:13.613Z,97822.00
2023-05-19T17:21:42.150Z,97821.19
2023-05-19T17:24:11.014Z,97811.78
2023-05-19T17:26:39.589Z,97813.41
2023-05-19T17:29:09.364Z,97814.53
2023-05-19T17:31:37.803Z,97816.47
2023-05-19T17:34:06.267Z,97809.03
2023-05-19T17:36:34.850Z,97809.34
2023-05-19T17:39:03.659Z,97808.22
2023-05-19T17:41:32.729Z,97811.78
2023-05-19T17:44:01.839Z,97810.16
2023-05-19T17:46:34.602Z,97814.84
2023-05-19T17:49:03.454Z,97814.03
2023-05-19T17:51:32.933Z,97811.28
2023-05-19T17:54:01.841Z,97804.16
2023-05-19T17:56:33.997Z,97807.72
2023-05-19T17:59:03.126Z,97805.78
2023-05-19T18:01:33.751Z,97813.22
2023-05-19T18:04:03.664Z,97812.41
2023-05-19T18:06:32.772Z,97807.19
2023-05-19T18:09:02.195Z,97805.25
2023-05-19T18:11:30.640Z,97805.25
2023-05-19T18:13:59.071Z,97810.78
2023-05-19T18:16:27.813Z,97805.25
2023-05-19T18:18:57.702Z,97810.78
2023-05-19T18:21:26.870Z,97807.19
2023-05-19T18:23:55.369Z,97809.13
2023-05-19T18:26:23.850Z,97806.38
2023-05-19T18:28:52.283Z,97812.72
2023-05-19T18:31:20.780Z,97796.50
2023-05-19T18:33:49.654Z,97798.13
2023-05-19T18:36:19.585Z,97797.31
2023-05-19T18:38:48.166Z,97798.13
2023-05-19T18:41:16.713Z,97802.81
2023-05-19T18:43:45.255Z,97796.50
2023-05-19T18:46:13.963Z,97800.38
2023-05-19T18:48:42.568Z,97804.75
2023-05-19T18:51:11.212Z,97803.13
2023-05-19T18:53:41.301Z,97804.25
2023-05-19T18:56:12.294Z,97807.00
2023-05-19T18:58:40.882Z,97809.75
2023-05-19T19:01:09.593Z,97803.44
2023-05-19T19:03:38.306Z,97803.44
2023-05-19T19:06:07.031Z,97812.50
2023-05-19T19:08:35.624Z,97806.50
2023-05-19T19:11:09.206Z,97812.00
2023-05-19T19:13:37.866Z,97821.91
2023-05-19T19:16:07.455Z,97824.66
2023-05-19T19:18:36.740Z,97824.66
2023-05-19T19:21:05.889Z,97827.72
2023-05-19T19:23:34.816Z,97828.53
2023-05-19T19:26:03.255Z,97825.78
2023-05-19T19:28:33.105Z,97824.16
2023-05-19T19:31:01.619Z,97826.91
2023-05-19T19:33:30.130Z,97826.91
2023-05-19T19:35:58.909Z,97821.38
2023-05-19T19:38:27.603Z,97823.31
2023-05-19T19:40:56.127Z,97821.38
2023-05-19T19:43:24.609Z,97826.09
2023-05-19T19:46:01.224Z,97822.50
2023-05-19T19:48:29.873Z,97823.63
2023-05-19T19:50:59.004Z,97818.13
2023-05-19T19:53:27.775Z,97818.13
2023-05-19T19:56:00.233Z,97822.50
2023-05-19T19:58:29.793Z,97824.44
2023-05-19T20:00:58.698Z,97829.16
2023-05-19T20:03:28.710Z,97833.03
2023-05-19T20:05:57.803Z,97832.22
2023-05-19T20:08:27.080Z,97826.69
2023-05-19T20:10:55.792Z,97833.03
2023-05-19T20:13:24.356Z,97833.84
2023-05-19T20:15:53.041Z,97831.38
2023-05-19T20:18:21.638Z,97830.56
2023-05-19T20:20:51.655Z,97834.44
2023-05-19T20:23:20.194Z,97829.75
2023-05-19T20:26:06.725Z,97828.94
2023-05-19T20:28:37.203Z,97835.25
2023-05-19T20:31:06.259Z,97833.63
2023-05-19T20:33:34.893Z,97835.25
2023-05-19T20:36:06.268Z,97829.75
2023-05-19T20:38:34.904Z,97834.44
2023-05-19T20:41:03.831Z,97824.25
2023-05-19T20:43:32.941Z,97822.63
2023-05-19T20:46:03.648Z,97817.13
2023-05-19T20:48:32.257Z,97817.13
2023-05-19T20:51:00.766Z,97809.97
2023-05-19T20:53:30.628Z,97821.81
2023-05-19T20:55:59.206Z,97821.81
2023-05-19T20:58:30.094Z,97815.47
2023-05-19T21:00:58.681Z,97820.47
2023-05-19T21:03:28.465Z,97821.00
2023-05-19T21:05:57.625Z,97815.47
2023-05-19T21:08:26.468Z,97818.25
2023-05-19T21:10:56.489Z,97814.66
2023-05-19T21:13:24.977Z,97814.66
2023-05-19T21:15:53.493Z,97813.84
2023-05-19T21:18:22.012Z,97813.03
2023-05-19T21:20:50.662Z,97817.72
2023-05-19T21:23:19.200Z,97815.78
2023-05-19T21:25:47.634Z,97813.84
2023-05-19T21:28:17.423Z,97811.41
2023-05-19T21:30:48.648Z,97811.41
2023-05-19T21:33:17.124Z,97809.47
2023-05-19T21:35:46.089Z,97808.97
2023-05-19T21:38:23.484Z,97807.84
2023-05-19T21:40:53.149Z,97809.47
2023-05-19T21:43:23.692Z,97804.28
2023-05-19T21:45:52.159Z,97801.50
2023-05-19T21:48:21.451Z,97798.75
2023-05-19T21:50:53.632Z,97795.19
2023-05-19T21:53:22.121Z,97792.44
2023-05-19T21:55:50.815Z,97791.63
2023-05-19T21:58:19.271Z,97788.06
2023-05-19T22:00:51.296Z,97777.03
2023-05-19T22:03:20.117Z,97779.78
2023-05-19T22:05:52.345Z,97780.59
2023-05-19T22:08:22.248Z,97772.66
2023-05-19T22:10:51.320Z,97785.31
2023-05-19T22:13:20.095Z,97777.84
2023-05-19T22:15:51.185Z,97784.47
2023-05-19T22:18:19.711Z,97788.06
2023-05-19T22:20:48.182Z,97784.47
2023-05-19T22:23:16.734Z,97785.31
2023-05-19T22:25:45.198Z,97782.84
2023-05-19T22:28:13.640Z,97782.84
2023-05-19T22:30:43.763Z,97778.47
2023-05-19T22:33:13.709Z,97774.09
2023-05-19T22:35:42.906Z,97782.03
2023-05-19T22:38:11.690Z,97771.66
2023-05-19T22:40:40.218Z,97776.03
2023-05-19T22:43:08.730Z,97778.78
2023-05-19T22:45:37.487Z,97763.38
2023-05-19T22:48:06.740Z,97766.94
2023-05-19T22:50:36.642Z,97766.13
2023-05-19T22:53:05.113Z,97761.44
2023-05-19T22:55:33.810Z,97763.38
2023-05-19T22:58:02.403Z,97768.88
2023-05-19T23:00:31.086Z,97761.75
2023-05-19T23:02:59.853Z,97760.94
2023-05-19T23:05:28.354Z,97759.81
2023-05-19T23:07:58.274Z,97755.13
2023-05-19T23:10:26.678Z,97756.25
2023-05-19T23:12:55.256Z,97754.63
2023-05-19T23:15:23.873Z,97756.25
2023-05-19T23:17:52.363Z,97749.09
2023-05-19T23:20:20.850Z,97747.16
2023-05-19T23:22:49.348Z,97747.16
2023-05-19T23:25:19.261Z,97739.22
2023-05-19T23:27:47.673Z,97733.72
2023-05-19T23:30:16.155Z,97734.53
2023-05-19T23:32:44.622Z,97733.72
2023-05-19T23:35:14.270Z,97743.59
2023-05-19T23:37:42.959Z,97729.84
2023-05-19T23:40:12.041Z,97732.59
2023-05-19T23:42:41.852Z,97728.22
2023-05-19T23:45:10.705Z,97728.22
2023-05-19T23:47:39.330Z,97727.41
2023-05-19T23:50:08.276Z,97729.34
2023-05-19T23:52:36.819Z,97732.91
2023-05-19T23:55:05.922Z,97734.84
2023-05-19T23:57:34.372Z,97735.97
